^^
Station Historical Data
Daily Summary for January 28, 2018 Units:  Metric    English   Both
« Previous Day
Next Day »
Daily Weekly Monthly Yearly Custom
  High: Low: Average:
Temperature: -17.8 °C 20.1 °C 26.4 °C
Dew Point: -17.8 °C 1.4 °C 5.8 °C
Humidity: Humidity% 16% 29%
Wind Speed: 0km/h 0km/h 4km/h
Wind Gust: 0km/h - -
Wind- - SSW
Pressure: 0 hPa 999.5 hPa -
Precipitation: 0 mm    
Historical Graphs
 
 
Tabular Data for January 28, 2018
Time Temperature Dew Point Pressure Wind Wind Speed Wind Gust Humidity Rainfall Rate (Hourly) solar Conditions
-17.8 °C -17.8 °C 0 hPa Calm     Humidity% 0 mm SolarRadiationWatts/m^2 W/m2 Conditions
00:02 20.8 °C 9.7 °C 1005.3 hPa Calm     49% 0 mm 0.0 W/m2
00:08 20.7 °C 9.6 °C 1005 hPa Calm     49% 0 mm 0.0 W/m2
00:13 20.6 °C 9.5 °C 1005 hPa South 3.2 km/h 3.2 km/h 49% 0 mm 0.0 W/m2
00:18 20.4 °C 9.6 °C 1005 hPa Calm   3.2 km/h 50% 0 mm 0.0 W/m2
00:23 20.4 °C 9.9 °C 1005 hPa SE 3.2 km/h 6.4 km/h 51% 0 mm 0.0 W/m2
00:28 20.3 °C 9.5 °C 1004.6 hPa Calm   1.6 km/h 50% 0 mm 0.0 W/m2
00:33 20.3 °C 8.9 °C 1004.6 hPa SE 1.4 km/h 4.8 km/h 48% 0 mm 0.0 W/m2
00:38 20.4 °C 7.4 °C 1004.6 hPa Calm   1.6 km/h 43% 0 mm 0.0 W/m2
00:44 20.4 °C 7.1 °C 1004.6 hPa Calm     42% 0 mm 0.0 W/m2
00:49 20.6 °C 8.2 °C 1004.6 hPa Calm     45% 0 mm 0.0 W/m2
00:54 20.4 °C 7.1 °C 1004.6 hPa Calm     42% 0 mm 0.0 W/m2
00:59 20.4 °C 6.7 °C 1004.6 hPa Calm     41% 0 mm 0.0 W/m2
01:04 20.3 °C 6.6 °C 1004.6 hPa Calm   1.6 km/h 41% 0 mm 0.0 W/m2
01:09 20.3 °C 6.6 °C 1004.6 hPa Calm     41% 0 mm 0.0 W/m2
01:14 20.2 °C 6.5 °C 1004.6 hPa Calm     41% 0 mm 0.0 W/m2
01:19 20.2 °C 6.5 °C 1004.6 hPa Calm     41% 0 mm 0.0 W/m2
01:25 20.1 °C 6.1 °C 1004.6 hPa Calm   4.8 km/h 40% 0 mm 0.0 W/m2
01:30 20.1 °C 5.7 °C 1004.6 hPa Calm     39% 0 mm 0.0 W/m2
01:35 20.1 °C 6.1 °C 1004.6 hPa Calm     40% 0 mm 0.0 W/m2
01:40 20.1 °C 6.1 °C 1004.6 hPa Calm     40% 0 mm 0.0 W/m2
01:43 20.1 °C 6.1 °C 1004.6 hPa Calm     40% 0 mm 0.0 W/m2
01:48 20.1 °C 6.1 °C 1004.6 hPa Calm     40% 0 mm 0.0 W/m2
01:53 20.1 °C 5.7 °C 1004.3 hPa Calm     39% 0 mm 0.0 W/m2
01:58 20.1 °C 5.7 °C 1004.3 hPa Calm   1.6 km/h 39% 0 mm 0.0 W/m2
02:03 20.3 °C 4.7 °C 1004.3 hPa Calm   4.8 km/h 36% 0 mm 0.0 W/m2
02:09 20.6 °C 5 °C 1004.3 hPa Calm   4.8 km/h 36% 0 mm 0.0 W/m2
02:14 20.9 °C 4.9 °C 1004.3 hPa South 1.4 km/h 3.2 km/h 35% 0 mm 0.0 W/m2
02:19 21.3 °C 4.8 °C 1004.3 hPa Calm     34% 0 mm 0.0 W/m2
02:24 21.6 °C 5.1 °C 1004.3 hPa Calm   3.2 km/h 34% 0 mm 0.0 W/m2
02:29 21.7 °C 4.7 °C 1004.3 hPa SSE 3.2 km/h 4.8 km/h 33% 0 mm 0.0 W/m2
02:34 21.9 °C 4.5 °C 1004.3 hPa Calm   3.2 km/h 32% 0 mm 0.0 W/m2
02:39 22.1 °C 4.2 °C 1004.3 hPa Calm   3.2 km/h 31% 0 mm 0.0 W/m2
02:44 22.2 °C 4.7 °C 1004.3 hPa Calm     32% 0 mm 0.0 W/m2
02:49 22.3 °C 4.8 °C 1004.6 hPa Calm     32% 0 mm 0.0 W/m2
02:54 22.3 °C 5.2 °C 1004.6 hPa Calm     33% 0 mm 0.0 W/m2
03:00 22.2 °C 4.7 °C 1004.6 hPa Calm     32% 0 mm 0.0 W/m2
03:05 22.2 °C 4.7 °C 1004.6 hPa Calm   1.6 km/h 32% 0 mm 0.0 W/m2
03:10 22.2 °C 4.3 °C 1004.3 hPa Calm   3.2 km/h 31% 0 mm 0.0 W/m2
03:15 22.2 °C 3.3 °C 1004.6 hPa South 3.2 km/h 3.2 km/h 29% 0 mm 0.0 W/m2
03:20 22.3 °C 2.9 °C 1004.6 hPa SE 4.7 km/h 8 km/h 28% 0 mm 0.0 W/m2
03:25 22.6 °C 3.2 °C 1004.6 hPa ESE 6.4 km/h 9.7 km/h 28% 0 mm 0.0 W/m2
03:30 22.7 °C 3.2 °C 1004.6 hPa ESE 9.7 km/h 20.9 km/h 28% 0 mm 0.0 W/m2
03:35 22.9 °C 3.4 °C 1004.6 hPa SSE 11.1 km/h 19.3 km/h 28% 0 mm 0.0 W/m2
03:41 22.9 °C 3.4 °C 1004.6 hPa SE 9.7 km/h 12.9 km/h 28% 0 mm 0.0 W/m2
03:46 22.9 °C 3.4 °C 1004.3 hPa SSE 6.4 km/h 12.9 km/h 28% 0 mm 0.0 W/m2
03:51 22.9 °C 2.9 °C 1004.3 hPa SE 3.2 km/h 11.3 km/h 27% 0 mm 0.0 W/m2
03:56 22.9 °C 2.9 °C 1004.3 hPa SE 4.7 km/h 11.3 km/h 27% 0 mm 0.0 W/m2
04:01 22.9 °C 2.9 °C 1004.3 hPa WSW 6.4 km/h 12.9 km/h 27% 0 mm 0.0 W/m2
04:06 22.8 °C 2.8 °C 1004.3 hPa ESE 3.2 km/h 12.9 km/h 27% 0 mm 0.0 W/m2
04:11 22.8 °C 2.8 °C 1004.3 hPa SE 17.7 km/h 17.7 km/h 27% 0 mm 0.0 W/m2
04:16 22.8 °C 2.8 °C 1004.3 hPa South 13 km/h 16.1 km/h 27% 0 mm 0.0 W/m2
04:21 22.8 °C 2.8 °C 1004.3 hPa SE 9.7 km/h 12.9 km/h 27% 0 mm 0.0 W/m2
04:26 22.8 °C 2.8 °C 1003.9 hPa SSE 3.2 km/h 19.3 km/h 27% 0 mm 0.0 W/m2
04:31 22.8 °C 2.8 °C 1003.9 hPa South 7.9 km/h 17.7 km/h 27% 0 mm 0.0 W/m2
04:36 22.8 °C 2.8 °C 1003.9 hPa SSE 3.2 km/h 4.8 km/h 27% 0 mm 0.0 W/m2
04:42 22.7 °C 2.7 °C 1003.9 hPa Calm   4.8 km/h 27% 0 mm 0.0 W/m2
04:47 22.7 °C 2.7 °C 1003.9 hPa Calm   4.8 km/h 27% 0 mm 0.0 W/m2
04:52 22.6 °C 2.7 °C 1003.9 hPa Calm   3.2 km/h 27% 0 mm 0.0 W/m2
04:57 22.6 °C 2.7 °C 1003.9 hPa Calm   6.4 km/h 27% 0 mm 0.0 W/m2
05:02 22.6 °C 2.1 °C 1003.9 hPa Calm   8 km/h 26% 0 mm 0.0 W/m2
05:07 22.6 °C 2.1 °C 1003.9 hPa SSW 1.4 km/h 12.9 km/h 26% 0 mm 0.0 W/m2
05:12 22.7 °C 2.2 °C 1003.9 hPa Calm   1.6 km/h 26% 0 mm 0.0 W/m2
05:18 22.8 °C 1.7 °C 1003.6 hPa ESE 3.2 km/h 8 km/h 25% 0 mm 0.0 W/m2
05:23 22.8 °C 1.7 °C 1003.6 hPa SE 1.4 km/h 6.4 km/h 25% 0 mm 0.0 W/m2
05:28 22.9 °C 1.8 °C 1003.9 hPa ESE 14.3 km/h 16.1 km/h 25% 0 mm 0.0 W/m2
05:33 22.9 °C 1.8 °C 1003.6 hPa SSE 6.4 km/h 17.7 km/h 25% 0 mm 0.0 W/m2
05:38 23.1 °C 2 °C 1003.6 hPa SSW 7.9 km/h 11.3 km/h 25% 0 mm 0.0 W/m2
05:43 23.1 °C 2 °C 1003.6 hPa South 9.7 km/h 12.9 km/h 25% 0 mm 0.0 W/m2
05:48 23.1 °C 2 °C 1003.6 hPa SE 7.9 km/h 17.7 km/h 25% 0 mm 0.0 W/m2
05:53 23.1 °C 2 °C 1003.6 hPa SSE 17.7 km/h 17.7 km/h 25% 0 mm 0.0 W/m2
05:58 23.1 °C 2 °C 1003.6 hPa SE 4.7 km/h 20.9 km/h 25% 0 mm 0.0 W/m2
06:03 23 °C 1.9 °C 1003.6 hPa SW 6.4 km/h 19.3 km/h 25% 0 mm 0.0 W/m2
06:09 22.9 °C 1.8 °C 1003.9 hPa South 3.2 km/h 17.7 km/h 25% 0 mm 0.0 W/m2
06:14 22.8 °C 1.7 °C 1003.9 hPa SSE 1.4 km/h 16.1 km/h 25% 0 mm 0.0 W/m2
06:19 22.8 °C 1.7 °C 1003.9 hPa SE 9.7 km/h 14.5 km/h 25% 0 mm 0.0 W/m2
06:25 22.7 °C 1.7 °C 1003.9 hPa SSW 4.7 km/h 12.9 km/h 25% 0 mm 0.0 W/m2
06:31 22.6 °C 1.6 °C 1004.3 hPa SSE 6.4 km/h 14.5 km/h 25% 0 mm 0.0 W/m2
06:36 22.5 °C 1.5 °C 1004.3 hPa SE 6.4 km/h 16.1 km/h 25% 0 mm 7.0 W/m2
06:41 22.4 °C 1.4 °C 1004.3 hPa ESE 7.9 km/h 9.7 km/h 25% 0 mm 12.0 W/m2
06:46 22.4 °C 2 °C 1004.6 hPa North 3.2 km/h 3.2 km/h 26% 0 mm 19.0 W/m2
06:51 22.3 °C 2.4 °C 1004.6 hPa Calm   3.2 km/h 27% 0 mm 26.0 W/m2
06:56 22.1 °C 2.2 °C 1004.6 hPa NNW 1.4 km/h 1.6 km/h 27% 0 mm 33.0 W/m2
07:01 21.9 °C 2.1 °C 1004.6 hPa SW 4.7 km/h 4.8 km/h 27% 0 mm 40.0 W/m2
07:07 21.9 °C 2.1 °C 1005 hPa Calm   1.6 km/h 27% 0 mm 46.0 W/m2
07:12 22.1 °C 1.7 °C 1005 hPa Calm   8 km/h 26% 0 mm 47.0 W/m2
07:17 22.1 °C 2.7 °C 1005 hPa Calm   6.4 km/h 28% 0 mm 49.0 W/m2
07:22 22.2 °C 2.3 °C 1005 hPa South 3.2 km/h 8 km/h 27% 0 mm 51.0 W/m2
07:27 22.4 °C 2.5 °C 1005 hPa SSW 1.4 km/h 4.8 km/h 27% 0 mm 54.0 W/m2
07:32 22.5 °C 2.6 °C 1005 hPa South 7.9 km/h 11.3 km/h 27% 0 mm 60.0 W/m2
07:38 22.6 °C 2.7 °C 1004.6 hPa SSW 1.4 km/h 3.2 km/h 27% 0 mm 67.0 W/m2
07:43 22.7 °C 2.7 °C 1004.6 hPa Calm   11.3 km/h 27% 0 mm 123.0 W/m2
07:48 22.8 °C 3.3 °C 1004.6 hPa Calm   1.6 km/h 28% 0 mm 227.0 W/m2
07:53 23 °C 3 °C 1004.6 hPa SSW 1.4 km/h 8 km/h 27% 0 mm 72.0 W/m2
07:58 23.2 °C 3.2 °C 1004.6 hPa East 4.7 km/h 8 km/h 27% 0 mm 141.0 W/m2
08:03 23.2 °C 3.2 °C 1004.6 hPa Calm   8 km/h 27% 0 mm 341.0 W/m2
08:08 23.4 °C 3.9 °C 1004.6 hPa WSW 4.7 km/h 4.8 km/h 28% 0 mm 353.0 W/m2
08:13 23.6 °C 3.5 °C 1004.6 hPa Calm   4.8 km/h 27% 0 mm 341.0 W/m2
08:19 23.7 °C 3.6 °C 1004.6 hPa South 4.7 km/h 6.4 km/h 27% 0 mm 369.0 W/m2
08:24 23.9 °C 3.8 °C 1004.6 hPa Calm   4.8 km/h 27% 0 mm 357.0 W/m2
08:30 24.3 °C 3.6 °C 1004.6 hPa SW 3.2 km/h 11.3 km/h 26% 0 mm 330.0 W/m2
08:35 24.7 °C 3.3 °C 1004.6 hPa SE 1.4 km/h 8 km/h 25% 0 mm 417.0 W/m2
08:40 25 °C 4.7 °C 1004.6 hPa SSE 3.2 km/h 8 km/h 27% 0 mm 485.0 W/m2
08:45 25.3 °C 3.9 °C 1004.6 hPa South 3.2 km/h 4.8 km/h 25% 0 mm 452.0 W/m2
08:50 25.5 °C 3.4 °C 1004.6 hPa WSW 1.4 km/h 6.4 km/h 24% 0 mm 519.0 W/m2
08:55 25.6 °C 4.1 °C 1004.6 hPa WSW 1.4 km/h 3.2 km/h 25% 0 mm 554.0 W/m2
09:00 25.9 °C 4.4 °C 1004.6 hPa WSW 3.2 km/h 6.4 km/h 25% 0 mm 568.0 W/m2
09:05 26.2 °C 4 °C 1004.6 hPa Calm   4.8 km/h 24% 0 mm 485.0 W/m2
09:10 26.3 °C 3.5 °C 1004.6 hPa WNW 1.4 km/h 3.2 km/h 23% 0 mm 635.0 W/m2
09:15 26.5 °C 4.3 °C 1004.6 hPa SSE 3.2 km/h 8 km/h 24% 0 mm 510.0 W/m2
09:20 26.8 °C 3.9 °C 1004.6 hPa SW 1.4 km/h 6.4 km/h 23% 0 mm 258.0 W/m2
09:25 26.7 °C 3.8 °C 1004.6 hPa Calm   1.6 km/h 23% 0 mm 638.0 W/m2
09:30 26.9 °C 4.6 °C 1004.6 hPa Calm     24% 0 mm 580.0 W/m2
09:36 27.2 °C 4.9 °C 1004.6 hPa Calm   4.8 km/h 24% 0 mm 526.0 W/m2
09:41 27.7 °C 5.3 °C 1004.6 hPa Calm   3.2 km/h 24% 0 mm 714.0 W/m2
09:46 28.2 °C 4.5 °C 1004.6 hPa North 4.7 km/h 8 km/h 22% 0 mm 742.0 W/m2
09:51 28.8 °C 4.3 °C 1004.6 hPa North 3.2 km/h 8 km/h 21% 0 mm 756.0 W/m2
09:56 29.2 °C 4.6 °C 1004.6 hPa NNW 1.4 km/h 8 km/h 21% 0 mm 772.0 W/m2
10:01 29.6 °C 4.3 °C 1004.6 hPa NW 7.9 km/h 9.7 km/h 20% 0 mm 791.0 W/m2
10:06 29.8 °C 4.4 °C 1004.3 hPa North 7.9 km/h 9.7 km/h 20% 0 mm 809.0 W/m2
10:11 29.9 °C 4.5 °C 1004.3 hPa WNW 1.4 km/h 8 km/h 20% 0 mm 828.0 W/m2
10:16 29.9 °C 4.5 °C 1004.3 hPa NNW 7.9 km/h 11.3 km/h 20% 0 mm 777.0 W/m2
10:22 30.1 °C 5.4 °C 1004.3 hPa NNW 3.2 km/h 6.4 km/h 21% 0 mm 853.0 W/m2
10:27 30.2 °C 4.8 °C 1004.3 hPa NW 3.2 km/h 9.7 km/h 20% 0 mm 821.0 W/m2
10:32 30.2 °C 4.8 °C 1003.9 hPa Calm   6.4 km/h 20% 0 mm 831.0 W/m2
10:38 30.3 °C 6.2 °C 1003.9 hPa Calm   3.2 km/h 22% 0 mm 877.0 W/m2
10:45 30.4 °C 6.3 °C 1003.9 hPa WNW 1.4 km/h 4.8 km/h 22% 0 mm 886.0 W/m2
10:50 30.6 °C 6.5 °C 1004.3 hPa NNW 6.4 km/h 12.9 km/h 22% 0 mm 786.0 W/m2
10:55 30.6 °C 5.8 °C 1004.3 hPa Calm   6.4 km/h 21% 0 mm 914.0 W/m2
11:00 30.7 °C 5.9 °C 1003.9 hPa West 3.2 km/h 11.3 km/h 21% 0 mm 802.0 W/m2
11:05 31 °C 6.1 °C 1003.9 hPa SW 3.2 km/h 6.4 km/h 21% 0 mm 666.0 W/m2
11:10 31.1 °C 6.2 °C 1003.9 hPa Calm   9.7 km/h 21% 0 mm 770.0 W/m2
11:15 31.1 °C 5.5 °C 1003.9 hPa NW 4.7 km/h 6.4 km/h 20% 0 mm 621.0 W/m2
11:21 31 °C 6.1 °C 1003.9 hPa Calm   12.9 km/h 21% 0 mm 733.0 W/m2
11:26 31.2 °C 5.6 °C 1003.6 hPa NNE 6.4 km/h 11.3 km/h 20% 0 mm 782.0 W/m2
11:31 31.1 °C 6.2 °C 1003.6 hPa North 7.9 km/h 12.9 km/h 21% 0 mm 940.0 W/m2
11:36 31.2 °C 5.6 °C 1003.6 hPa WSW 3.2 km/h 9.7 km/h 20% 0 mm 772.0 W/m2
11:41 31.2 °C 5.6 °C 1003.3 hPa West 3.2 km/h 9.7 km/h 20% 0 mm 568.0 W/m2
11:46 31.3 °C 5.7 °C 1003.6 hPa NW 6.4 km/h 6.4 km/h 20% 0 mm 1076.0 W/m2
11:51 31.7 °C 6 °C 1003.3 hPa West 7.9 km/h 14.5 km/h 20% 0 mm 911.0 W/m2
11:56 32 °C 6.2 °C 1003.3 hPa NNE 9.7 km/h 12.9 km/h 20% 0 mm 1053.0 W/m2
12:01 32.2 °C 5.7 °C 1003.3 hPa North 9.7 km/h 14.5 km/h 19% 0 mm 953.0 W/m2
12:06 32.3 °C 6.5 °C 1003.3 hPa NNW 7.9 km/h 11.3 km/h 20% 0 mm 1039.0 W/m2
12:12 32.6 °C 6 °C 1003.3 hPa WNW 1.4 km/h 12.9 km/h 19% 0 mm 1076.0 W/m2
12:17 32.7 °C 6.1 °C 1003.3 hPa NNE 7.9 km/h 14.5 km/h 19% 0 mm 1046.0 W/m2
12:22 32.7 °C 6.1 °C 1003.3 hPa NNW 6.4 km/h 12.9 km/h 19% 0 mm 1028.0 W/m2
12:27 32.8 °C 5.4 °C 1002.9 hPa NNW 9.7 km/h 12.9 km/h 18% 0 mm 951.0 W/m2
12:32 32.7 °C 6.1 °C 1002.9 hPa North 6.4 km/h 8 km/h 19% 0 mm 1095.0 W/m2
12:37 32.8 °C 6.1 °C 1002.9 hPa North 6.4 km/h 8 km/h 19% 0 mm 1090.0 W/m2
12:42 33.1 °C 5.6 °C 1002.9 hPa NNE 4.7 km/h 14.5 km/h 18% 0 mm 1063.0 W/m2
12:47 33.3 °C 5.8 °C 1002.9 hPa SW 1.4 km/h 14.5 km/h 18% 0 mm 1069.0 W/m2
12:53 33.3 °C 5.8 °C 1002.6 hPa ENE 6.4 km/h 9.7 km/h 18% 0 mm 1074.0 W/m2
12:59 33.6 °C 6 °C 1002.6 hPa NNW 4.7 km/h 11.3 km/h 18% 0 mm 1093.0 W/m2
13:04 33.6 °C 5.2 °C 1002.6 hPa SW 3.2 km/h 9.7 km/h 17% 0 mm 919.0 W/m2
13:09 33.6 °C 5.2 °C 1002.6 hPa NNE 9.7 km/h 12.9 km/h 17% 0 mm 1153.0 W/m2
13:14 33.7 °C 5.3 °C 1002.3 hPa Calm   11.3 km/h 17% 0 mm 1227.0 W/m2
13:19 33.9 °C 5.4 °C 1002.3 hPa North 9.7 km/h 9.7 km/h 17% 0 mm 582.0 W/m2
13:24 33.8 °C 5.3 °C 1002.3 hPa NNW 4.7 km/h 8 km/h 17% 0 mm 482.0 W/m2
13:29 33.7 °C 5.3 °C 1002.3 hPa NNW 7.9 km/h 8 km/h 17% 0 mm 501.0 W/m2
13:34 33.6 °C 5.2 °C 1001.9 hPa South 3.2 km/h 11.3 km/h 17% 0 mm 1382.0 W/m2
13:40 33.4 °C 5 °C 1001.9 hPa NNE 4.7 km/h 9.7 km/h 17% 0 mm 513.0 W/m2
13:46 33.4 °C 5 °C 1001.9 hPa NNE 6.4 km/h 6.4 km/h 17% 0 mm 1028.0 W/m2
13:51 33.7 °C 5.3 °C 1001.9 hPa Calm   14.5 km/h 17% 0 mm 490.0 W/m2
13:56 33.7 °C 6.1 °C 1001.9 hPa ENE 4.7 km/h 9.7 km/h 18% 0 mm 448.0 W/m2
14:01 33.7 °C 5.3 °C 1001.9 hPa NE 4.7 km/h 11.3 km/h 17% 0 mm 450.0 W/m2
14:06 33.7 °C 5.3 °C 1001.9 hPa West 1.4 km/h 9.7 km/h 17% 0 mm 543.0 W/m2
14:11 33.6 °C 6 °C 1001.6 hPa NNE 1.4 km/h 4.8 km/h 18% 0 mm 512.0 W/m2
14:16 33.7 °C 5.3 °C 1001.6 hPa ENE 9.7 km/h 14.5 km/h 17% 0 mm 1171.0 W/m2
14:21 34.1 °C 5.6 °C 1001.6 hPa NW 3.2 km/h 14.5 km/h 17% 0 mm 1027.0 W/m2
14:26 34.5 °C 5.9 °C 1001.6 hPa Calm   9.7 km/h 17% 0 mm 1132.0 W/m2
14:32 34.8 °C 5.3 °C 1001.2 hPa Calm   8 km/h 16% 0 mm 1187.0 W/m2
14:37 34.7 °C 5.2 °C 1001.2 hPa Calm   6.4 km/h 16% 0 mm 1234.0 W/m2
14:42 34.6 °C 5.1 °C 1001.2 hPa Calm   1.6 km/h 16% 0 mm 902.0 W/m2
14:47 34.7 °C 5.2 °C 1001.2 hPa WNW 11.1 km/h 11.3 km/h 16% 0 mm 1157.0 W/m2
14:52 34.7 °C 5.2 °C 1001.2 hPa SE 4.7 km/h 6.4 km/h 16% 0 mm 272.0 W/m2
14:57 34.5 °C 5 °C 1001.2 hPa NW 1.4 km/h 8 km/h 16% 0 mm 322.0 W/m2
15:02 34.4 °C 5 °C 1000.9 hPa Calm   8 km/h 16% 0 mm 932.0 W/m2
15:07 34.7 °C 6.1 °C 1000.9 hPa ENE 1.4 km/h 14.5 km/h 17% 0 mm 1086.0 W/m2
15:13 34.9 °C 5.4 °C 1000.9 hPa NNE 11.1 km/h 11.3 km/h 16% 0 mm 315.0 W/m2
15:18 34.9 °C 6.2 °C 1000.6 hPa Calm   12.9 km/h 17% 0 mm 1114.0 W/m2
15:23 34.8 °C 5.3 °C 1000.6 hPa ENE 3.2 km/h 9.7 km/h 16% 0 mm 295.0 W/m2
15:28 34.5 °C 5.9 °C 1000.6 hPa Calm   6.4 km/h 17% 0 mm 223.0 W/m2
15:33 34.1 °C 5.6 °C 1000.6 hPa NE 6.4 km/h 14.5 km/h 17% 0 mm 199.0 W/m2
15:38 33.5 °C 5.1 °C 1000.6 hPa NE 6.4 km/h 9.7 km/h 17% 0 mm 183.0 W/m2
15:43 33.2 °C 5.7 °C 1000.2 hPa ESE 4.7 km/h 8 km/h 18% 0 mm 185.0 W/m2
15:48 33 °C 5.5 °C 1000.2 hPa East 3.2 km/h 8 km/h 18% 0 mm 186.0 W/m2
15:53 32.9 °C 5.4 °C 1000.2 hPa NNE 1.4 km/h 4.8 km/h 18% 0 mm 178.0 W/m2
15:59 32.8 °C 5.4 °C 1000.2 hPa WSW 1.4 km/h 8 km/h 18% 0 mm 179.0 W/m2
16:04 32.6 °C 5.2 °C 999.9 hPa WNW 3.2 km/h 4.8 km/h 18% 0 mm 193.0 W/m2
16:09 32.3 °C 5.7 °C 999.9 hPa Calm   4.8 km/h 19% 0 mm 192.0 W/m2
16:14 32.3 °C 5.7 °C 999.9 hPa SW 3.2 km/h 9.7 km/h 19% 0 mm 617.0 W/m2
16:19 32.8 °C 5.4 °C 999.9 hPa Calm   4.8 km/h 18% 0 mm 780.0 W/m2
16:24 33.2 °C 5.7 °C 999.9 hPa West 4.7 km/h 9.7 km/h 18% 0 mm 160.0 W/m2
16:29 33.2 °C 5.7 °C 999.5 hPa West 4.7 km/h 6.4 km/h 18% 0 mm 127.0 W/m2
16:34 32.8 °C 5.4 °C 999.5 hPa Calm   3.2 km/h 18% 0 mm 209.0 W/m2
16:39 32.6 °C 5.2 °C 999.9 hPa WSW 4.7 km/h 9.7 km/h 18% 0 mm 135.0 W/m2
16:44 32.6 °C 5.2 °C 999.5 hPa Calm   4.8 km/h 18% 0 mm 107.0 W/m2
16:50 32.6 °C 5.2 °C 999.5 hPa West 4.7 km/h 4.8 km/h 18% 0 mm 104.0 W/m2
16:55 32.4 °C 5 °C 999.5 hPa West 13 km/h 13 km/h 18% 0 mm 86.0 W/m2
17:00 32.1 °C 5.6 °C 999.5 hPa WNW 1.4 km/h 3.2 km/h 19% 0 mm 77.0 W/m2
17:05 31.9 °C 5.4 °C 999.9 hPa WSW 6.4 km/h 14.5 km/h 19% 0 mm 67.0 W/m2
17:10 31.4 °C 5 °C 999.9 hPa WSW 1.4 km/h 16.1 km/h 19% 0 mm 79.0 W/m2
17:15 31.1 °C 5.5 °C 999.9 hPa WSW 4.7 km/h 11.3 km/h 20% 0 mm 72.0 W/m2
17:20 30.8 °C 5.2 °C 999.9 hPa South 9.7 km/h 17.7 km/h 20% 0 mm 84.0 W/m2
17:25 30.4 °C 5.6 °C 999.9 hPa SSW 6.4 km/h 20.9 km/h 21% 0 mm 79.0 W/m2
17:30 30.1 °C 6 °C 999.9 hPa SW 6.4 km/h 17.7 km/h 22% 0 mm 76.0 W/m2
17:36 30 °C 6 °C 999.9 hPa West 3.2 km/h 14.5 km/h 22% 0 mm 77.0 W/m2
17:41 29.9 °C 5.9 °C 999.9 hPa WSW 6.4 km/h 12.9 km/h 22% 0 mm 88.0 W/m2
17:46 29.9 °C 5.2 °C 999.9 hPa WNW 11.1 km/h 14.5 km/h 21% 0 mm 100.0 W/m2
17:51 30 °C 6 °C 999.9 hPa SW 4.7 km/h 12.9 km/h 22% 0 mm 98.0 W/m2
17:56 30 °C 6 °C 999.9 hPa WSW 4.7 km/h 12.9 km/h 22% 0 mm 88.0 W/m2
18:01 30 °C 5.3 °C 999.9 hPa West 13 km/h 17.7 km/h 21% 0 mm 86.0 W/m2
18:06 29.9 °C 5.9 °C 999.9 hPa West 3.2 km/h 11.3 km/h 22% 0 mm 83.0 W/m2
18:11 29.9 °C 5.9 °C 999.9 hPa West 11.1 km/h 12.9 km/h 22% 0 mm 60.0 W/m2
18:17 29.9 °C 5.2 °C 999.9 hPa Calm   11.3 km/h 21% 0 mm 46.0 W/m2
18:22 29.9 °C 5.2 °C 1000.2 hPa WSW 6.4 km/h 12.9 km/h 21% 0 mm 40.0 W/m2
18:27 29.9 °C 5.2 °C 1000.2 hPa Calm   11.3 km/h 21% 0 mm 28.0 W/m2
18:32 29.9 °C 5.2 °C 1000.2 hPa SW 4.7 km/h 9.7 km/h 21% 0 mm 25.0 W/m2
18:37 29.8 °C 5.1 °C 1000.6 hPa WSW 13 km/h 14.5 km/h 21% 0 mm 21.0 W/m2
18:42 29.7 °C 5 °C 1000.6 hPa WSW 7.9 km/h 8 km/h 21% 0 mm 18.0 W/m2
18:47 29.7 °C 5 °C 1000.6 hPa South 3.2 km/h 8 km/h 21% 0 mm 14.0 W/m2
18:52 29.6 °C 5 °C 1000.6 hPa WSW 1.4 km/h 4.8 km/h 21% 0 mm 14.0 W/m2
18:57 29.6 °C 5 °C 1000.9 hPa Calm   4.8 km/h 21% 0 mm 14.0 W/m2
19:02 29.6 °C 5.6 °C 1000.9 hPa Calm   8 km/h 22% 0 mm 16.0 W/m2
19:08 29.5 °C 5.5 °C 1000.9 hPa Calm   3.2 km/h 22% 0 mm 12.0 W/m2
19:13 29.5 °C 5.5 °C 1001.2 hPa SW 1.4 km/h 1.6 km/h 22% 0 mm 11.0 W/m2
19:18 29.4 °C 4.8 °C 1001.2 hPa SSW 1.4 km/h 6.4 km/h 21% 0 mm 12.0 W/m2
19:23 29.4 °C 5.5 °C 1001.2 hPa Calm   4.8 km/h 22% 0 mm 7.0 W/m2
19:28 29.4 °C 4.8 °C 1001.2 hPa WSW 1.4 km/h 9.7 km/h 21% 0 mm 9.0 W/m2
19:33 29.3 °C 4 °C 1001.6 hPa SSW 3.2 km/h 14.5 km/h 20% 0 mm 7.0 W/m2
19:38 29.2 °C 3.9 °C 1001.6 hPa WSW 3.2 km/h 11.3 km/h 20% 0 mm 0.0 W/m2
19:43 29.2 °C 3.2 °C 1001.9 hPa South 9.7 km/h 12.9 km/h 19% 0 mm 0.0 W/m2
19:49 29 °C 2.3 °C 1001.9 hPa WSW 11.1 km/h 14.5 km/h 18% 0 mm 0.0 W/m2
19:54 28.7 °C 2 °C 1002.3 hPa Calm   16.1 km/h 18% 0 mm 0.0 W/m2
19:59 28.6 °C 2.7 °C 1002.3 hPa West 9.7 km/h 16.1 km/h 19% 0 mm 0.0 W/m2
20:05 28.4 °C 2.6 °C 1002.9 hPa West 3.2 km/h 14.5 km/h 19% 0 mm 0.0 W/m2
20:10 28.3 °C 2.5 °C 1002.9 hPa West 7.9 km/h 8 km/h 19% 0 mm 0.0 W/m2
20:15 28.1 °C 3 °C 1003.3 hPa WNW 3.2 km/h 6.4 km/h 20% 0 mm 0.0 W/m2
20:20 28 °C 7.3 °C 1003.6 hPa NNW 6.4 km/h 12.9 km/h 27% 0 mm 0.0 W/m2
20:25 27.7 °C 9 °C 1003.6 hPa NNW 4.7 km/h 4.8 km/h 31% 0 mm 0.0 W/m2
20:30 27.3 °C 9.6 °C 1003.9 hPa NNW 1.4 km/h 11.3 km/h 33% 0 mm 0.0 W/m2
20:35 26.8 °C 10.1 °C 1003.9 hPa NW 7.9 km/h 20.9 km/h 35% 0 mm 0.0 W/m2
20:40 26.4 °C 10.5 °C 1003.9 hPa NW 4.7 km/h 17.7 km/h 37% 0 mm 0.0 W/m2
20:45 26.2 °C 10.8 °C 1004.3 hPa North 7.9 km/h 11.3 km/h 38% 0 mm 0.0 W/m2
20:51 25.8 °C 11.9 °C 1004.3 hPa NNE 7.9 km/h 16.1 km/h 42% 0 mm 0.0 W/m2
20:56 25.3 °C 13.2 °C 1004.6 hPa NNE 13 km/h 20.9 km/h 47% 0 mm 0.0 W/m2
21:01 24.7 °C 13.3 °C 1004.6 hPa NNW 7.9 km/h 24.1 km/h 49% 0 mm 0.0 W/m2
21:06 24.3 °C 13.2 °C 1004.6 hPa NW 7.9 km/h 20.9 km/h 50% 0 mm 0.0 W/m2
21:11 24.2 °C 13.1 °C 1004.3 hPa NNW 13 km/h 17.7 km/h 50% 0 mm 0.0 W/m2
21:16 23.9 °C 12.8 °C 1004.6 hPa NNE 13 km/h 16.1 km/h 50% 0 mm 0.0 W/m2
21:21 23.7 °C 13 °C 1004.6 hPa North 7.9 km/h 22.5 km/h 51% 0 mm 0.0 W/m2
21:26 23.6 °C 13.2 °C 1004.6 hPa NE 11.1 km/h 20.9 km/h 52% 0 mm 0.0 W/m2
21:31 23.3 °C 13.2 °C 1004.6 hPa North 4.7 km/h 20.9 km/h 53% 0 mm 0.0 W/m2
21:36 23.1 °C 13.3 °C 1005 hPa NW 6.4 km/h 24.1 km/h 54% 0 mm 0.0 W/m2
21:42 22.8 °C 13.3 °C 1005 hPa NNW 9.7 km/h 17.7 km/h 55% 0 mm 0.0 W/m2
21:47 22.6 °C 13.4 °C 1005.3 hPa West 9.7 km/h 14.5 km/h 56% 0 mm 0.0 W/m2
21:52 22.4 °C 13.5 °C 1005.3 hPa NNW 14.3 km/h 17.7 km/h 57% 0 mm 0.0 W/m2
21:57 22.1 °C 13.7 °C 1005.3 hPa NNW 4.7 km/h 14.5 km/h 59% 0 mm 0.0 W/m2
22:02 21.9 °C 13.8 °C 1005.3 hPa NNE 7.9 km/h 20.9 km/h 60% 0 mm 0.0 W/m2
22:06 21.7 °C 13.6 °C 1005.3 hPa WNW 11.1 km/h 19.3 km/h 60% 0 mm 0.0 W/m2
22:11 21.6 °C 13.8 °C 1005.3 hPa NW 4.7 km/h 16.1 km/h 61% 0 mm 0.0 W/m2
22:16 21.4 °C 13.8 °C 1005.6 hPa NW 11.1 km/h 17.7 km/h 62% 0 mm 0.0 W/m2
22:22 21.3 °C 14 °C 1005.6 hPa NNW 9.7 km/h 9.7 km/h 63% 0 mm 0.0 W/m2
22:27 21.2 °C 13.9 °C 1005.6 hPa NW 6.4 km/h 12.9 km/h 63% 0 mm 0.0 W/m2
22:32 21.1 °C 13.8 °C 1005.6 hPa NE 7.9 km/h 12.9 km/h 63% 0 mm 0.0 W/m2
22:38 21.1 °C 14 °C 1005.6 hPa WNW 4.7 km/h 16.1 km/h 64% 0 mm 0.0 W/m2
22:43 20.9 °C 13.8 °C 1005.6 hPa NNW 9.7 km/h 17.7 km/h 64% 0 mm 0.0 W/m2
22:48 20.9 °C 14.1 °C 1005.6 hPa NNW 4.7 km/h 11.3 km/h 65% 0 mm 0.0 W/m2
22:54 20.8 °C 14 °C 1006 hPa NNW 4.7 km/h 12.9 km/h 65% 0 mm 0.0 W/m2
22:59 20.8 °C 14 °C 1005.6 hPa Calm   8 km/h 65% 0 mm 0.0 W/m2
23:04 20.8 °C 14 °C 1006 hPa Calm   9.7 km/h 65% 0 mm 0.0 W/m2
23:09 20.7 °C 13.6 °C 1006 hPa North 11.1 km/h 11.3 km/h 64% 0 mm 0.0 W/m2
23:14 20.6 °C 13.6 °C 1006.3 hPa NNW 1.4 km/h 4.8 km/h 64% 0 mm 0.0 W/m2
23:19 20.6 °C 13.6 °C 1006 hPa Calm   6.4 km/h 64% 0 mm 0.0 W/m2
23:25 20.5 °C 13.2 °C 1006 hPa Calm   4.8 km/h 63% 0 mm 0.0 W/m2
23:30 20.4 °C 12.9 °C 1006 hPa NW 7.9 km/h 9.7 km/h 62% 0 mm 0.0 W/m2
23:35 20.3 °C 12.8 °C 1006 hPa Calm   6.4 km/h 62% 0 mm 0.0 W/m2
23:40 20.3 °C 12.8 °C 1006 hPa WSW 1.4 km/h 3.2 km/h 62% 0 mm 0.0 W/m2
23:45 20.2 °C 12.7 °C 1006 hPa Calm   1.6 km/h 62% 0 mm 0.0 W/m2
23:50 20.2 °C 12.7 °C 1006 hPa Calm   1.6 km/h 62% 0 mm 0.0 W/m2
23:55 20.1 °C 12.6 °C 1006 hPa Calm   3.2 km/h 62% 0 mm 0.0 W/m2
Olympia, Windhoek, Namibia
Compliments of Weather Underground - 3.25 mb